createdAt,value
2023-08-05T00:01:19.459Z,100262.72
2023-08-05T00:03:49.375Z,100266.03
2023-08-05T00:06:18.235Z,100272.59
2023-08-05T00:08:47.486Z,100273.88
2023-08-05T00:11:18.427Z,100260.94
2023-08-05T00:13:49.141Z,100271.28
2023-08-05T00:16:18.253Z,100277.84
2023-08-05T00:18:46.490Z,100279.59
2023-08-05T00:21:16.407Z,100274.38
2023-08-05T00:23:44.791Z,100272.16
2023-08-05T00:26:12.881Z,100277.81
2023-08-05T00:28:45.648Z,100282.72
2023-08-05T00:31:13.986Z,100286.03
2023-08-05T00:33:44.628Z,100275.69
2023-08-05T00:36:16.232Z,100270.66
2023-08-05T00:38:49.727Z,100277.06
2023-08-05T00:41:20.234Z,100279.91
2023-08-05T00:43:51.122Z,100280.44
2023-08-05T00:46:24.082Z,100285.75
2023-08-05T00:48:55.331Z,100283.78
2023-08-05T00:51:25.368Z,100278.09
2023-08-05T00:53:53.791Z,100280.09
2023-08-05T00:56:21.903Z,100276.88
2023-08-05T00:58:50.422Z,100276.00
2023-08-05T01:01:18.773Z,100271.66
2023-08-05T01:03:47.274Z,100271.00
2023-08-05T01:06:17.596Z,100282.81
2023-08-05T01:08:48.743Z,100276.59
2023-08-05T01:11:20.548Z,100281.22
2023-08-05T01:13:53.429Z,100275.56
2023-08-05T01:16:22.283Z,100281.75
2023-08-05T01:18:55.139Z,100270.06
2023-08-05T01:21:35.207Z,100268.81
2023-08-05T01:24:16.636Z,100257.41
2023-08-05T01:26:49.539Z,100256.69
2023-08-05T01:29:18.126Z,100250.09
2023-08-05T01:31:53.677Z,100254.22
2023-08-05T01:34:21.931Z,100249.13
2023-08-05T01:36:52.710Z,100242.38
2023-08-05T01:39:21.378Z,100245.38
2023-08-05T01:41:50.866Z,100245.66
2023-08-05T01:44:22.181Z,100242.34
2023-08-05T01:46:50.713Z,100238.00
2023-08-05T01:49:19.135Z,100240.72
2023-08-05T01:51:47.282Z,100247.88
2023-08-05T01:54:17.426Z,100259.41
2023-08-05T01:56:45.777Z,100264.91
2023-08-05T01:59:15.224Z,100267.50
2023-08-05T02:01:44.649Z,100263.91
2023-08-05T02:04:15.966Z,100269.41
2023-08-05T02:06:44.970Z,100264.03
2023-08-05T02:09:13.090Z,100261.94
2023-08-05T02:11:41.469Z,100260.94
2023-08-05T02:14:12.683Z,100254.84
2023-08-05T02:16:42.324Z,100244.00
2023-08-05T02:19:12.544Z,100242.09
2023-08-05T02:21:41.123Z,100236.53
2023-08-05T02:24:12.408Z,100237.81
2023-08-05T02:29:16.204Z,100234.63
2023-08-05T02:31:44.447Z,100238.44
2023-08-05T02:34:14.745Z,100233.19
2023-08-05T02:36:43.071Z,100239.72
2023-08-05T02:39:11.429Z,100237.06
2023-08-05T02:41:41.123Z,100218.63
2023-08-05T02:44:09.358Z,100225.00
2023-08-05T02:46:38.902Z,100206.41
2023-08-05T02:49:09.884Z,100210.88
2023-08-05T02:51:38.226Z,100217.41
2023-08-05T02:56:57.703Z,100209.00
2023-08-05T02:59:25.802Z,100212.63
2023-08-05T03:01:55.327Z,100211.09
2023-08-05T03:04:23.881Z,100209.75
2023-08-05T03:06:54.894Z,100205.66
2023-08-05T03:09:25.779Z,100206.09
2023-08-05T03:11:56.254Z,100215.69
2023-08-05T03:17:14.476Z,100212.84
2023-08-05T03:19:45.283Z,100212.25
2023-08-05T03:22:16.461Z,100216.84
2023-08-05T03:24:46.595Z,100214.81
2023-08-05T03:27:15.101Z,100212.44
2023-08-05T03:29:46.693Z,100215.56
2023-08-05T03:32:17.084Z,100218.38
2023-08-05T03:34:48.412Z,100220.53
2023-08-05T03:37:19.395Z,100203.34
2023-08-05T03:39:48.921Z,100221.78
2023-08-05T03:42:20.170Z,100218.19
2023-08-05T03:44:50.396Z,100213.75
2023-08-05T03:47:21.721Z,100225.47
2023-08-05T03:49:49.953Z,100232.69
2023-08-05T03:52:18.408Z,100232.78
2023-08-05T03:54:46.838Z,100234.75
2023-08-05T03:57:16.173Z,100245.44
2023-08-05T03:59:44.824Z,100253.59
2023-08-05T04:02:13.190Z,100258.22
2023-08-05T04:04:43.740Z,100261.94
2023-08-05T04:07:15.082Z,100250.59
2023-08-05T04:09:44.026Z,100257.47
2023-08-05T04:12:16.280Z,100257.28
2023-08-05T04:14:45.713Z,100265.19
2023-08-05T04:17:16.870Z,100271.19
2023-08-05T04:19:49.385Z,100270.16
2023-08-05T04:22:21.596Z,100270.78
2023-08-05T04:24:49.821Z,100275.00
2023-08-05T04:27:18.198Z,100274.91
2023-08-05T04:29:46.412Z,100277.47
2023-08-05T04:32:19.285Z,100281.03
2023-08-05T04:34:49.075Z,100284.56
2023-08-05T04:37:18.367Z,100294.19
2023-08-05T04:39:47.200Z,100291.06
2023-08-05T04:42:18.817Z,100298.41
2023-08-05T04:44:47.174Z,100290.50
2023-08-05T04:47:15.757Z,100290.59
2023-08-05T04:49:45.875Z,100285.28
2023-08-05T04:52:15.974Z,100286.13
2023-08-05T04:54:45.862Z,100282.56
2023-08-05T04:57:17.105Z,100277.88
2023-08-05T04:59:49.639Z,100268.72
2023-08-05T05:02:17.937Z,100267.56
2023-08-05T05:04:48.532Z,100269.91
2023-08-05T05:07:18.210Z,100276.44
2023-08-05T05:09:46.383Z,100273.00
2023-08-05T05:12:16.910Z,100285.78
2023-08-05T05:14:46.500Z,100276.94
2023-08-05T05:17:16.796Z,100278.69
2023-08-05T05:19:47.634Z,100268.72
2023-08-05T05:22:20.107Z,100267.72
2023-08-05T05:24:49.971Z,100269.84
2023-08-05T05:27:19.158Z,100262.28
2023-08-05T05:29:49.926Z,100271.56
2023-08-05T05:32:18.310Z,100265.22
2023-08-05T05:34:46.810Z,100270.31
2023-08-05T05:37:17.429Z,100268.59
2023-08-05T05:39:47.623Z,100270.94
2023-08-05T05:42:16.465Z,100272.69
2023-08-05T05:44:53.524Z,100270.69
2023-08-05T05:47:29.242Z,100278.59
2023-08-05T05:49:57.373Z,100279.41
2023-08-05T05:52:25.611Z,100284.16
2023-08-05T05:54:55.975Z,100284.00
2023-08-05T05:57:24.517Z,100278.53
2023-08-05T05:59:52.817Z,100255.06
2023-08-05T06:02:21.037Z,100273.28
2023-08-05T06:04:49.531Z,100273.22
2023-08-05T06:07:17.990Z,100286.84
2023-08-05T06:09:48.652Z,100285.63
2023-08-05T06:12:19.469Z,100279.97
2023-08-05T06:14:47.854Z,100278.72
2023-08-05T06:17:19.832Z,100273.16
2023-08-05T06:19:48.264Z,100272.50
2023-08-05T06:22:16.364Z,100273.72
2023-08-05T06:24:49.250Z,100277.81
2023-08-05T06:27:18.862Z,100276.75
2023-08-05T06:29:47.217Z,100274.75
2023-08-05T06:32:17.568Z,100275.31
2023-08-05T06:34:48.217Z,100276.75
2023-08-05T06:37:16.419Z,100275.97
2023-08-05T06:39:44.776Z,100281.25
2023-08-05T06:42:13.013Z,100275.47
2023-08-05T06:44:45.823Z,100273.31
2023-08-05T06:47:14.610Z,100271.56
2023-08-05T06:49:45.192Z,100267.94
2023-08-05T06:52:13.446Z,100261.13
2023-08-05T06:54:44.402Z,100243.88
2023-08-05T06:57:12.605Z,100238.94
2023-08-05T06:59:40.829Z,100244.44
2023-08-05T07:02:13.400Z,100245.69
2023-08-05T07:04:41.646Z,100248.31
2023-08-05T07:07:09.725Z,100250.81
2023-08-05T07:09:41.075Z,100254.56
2023-08-05T07:12:11.562Z,100258.75
2023-08-05T07:14:40.849Z,100249.84
2023-08-05T07:17:09.076Z,100250.47
2023-08-05T07:19:38.434Z,100255.16
2023-08-05T07:22:07.838Z,100247.06
2023-08-05T07:24:35.929Z,100250.44
2023-08-05T07:30:17.220Z,100249.19
2023-08-05T07:32:45.391Z,100244.03
2023-08-05T07:35:16.059Z,100245.00
2023-08-05T07:37:48.517Z,100237.63
2023-08-05T07:40:19.377Z,100246.22
2023-08-05T07:42:50.583Z,100245.91
2023-08-05T07:45:22.240Z,100236.00
2023-08-05T07:47:50.501Z,100235.03
2023-08-05T07:50:23.118Z,100231.75
2023-08-05T07:52:54.768Z,100219.47
2023-08-05T07:55:23.696Z,100224.88
2023-08-05T07:57:52.530Z,100233.44
2023-08-05T08:00:24.450Z,100225.03
2023-08-05T08:02:52.925Z,100221.28
2023-08-05T08:05:21.275Z,100227.81
2023-08-05T08:07:52.469Z,100224.41
2023-08-05T08:10:26.002Z,100224.66
2023-08-05T08:12:54.464Z,100220.81
2023-08-05T08:15:26.443Z,100220.09
2023-08-05T08:17:56.875Z,100222.75
2023-08-05T08:20:25.036Z,100225.53
2023-08-05T08:22:53.058Z,100221.28
2023-08-05T08:25:24.193Z,100222.63
2023-08-05T08:27:52.760Z,100219.44
2023-08-05T08:30:20.869Z,100219.81
2023-08-05T08:32:50.365Z,100209.16
2023-08-05T08:35:18.637Z,100212.19
2023-08-05T08:37:46.762Z,100207.47
2023-08-05T08:40:17.678Z,100208.66
2023-08-05T08:42:52.157Z,100214.09
2023-08-05T08:45:27.048Z,100211.09
2023-08-05T08:47:59.184Z,100210.22
2023-08-05T08:50:29.847Z,100203.56
2023-08-05T08:53:00.317Z,100197.66
2023-08-05T08:55:30.592Z,100201.41
2023-08-05T08:57:58.729Z,100195.91
2023-08-05T09:00:28.430Z,100201.53
2023-08-05T09:02:58.894Z,100199.69
2023-08-05T09:05:27.689Z,100196.63
2023-08-05T09:07:55.902Z,100187.38
2023-08-05T09:10:25.120Z,100185.25
2023-08-05T09:12:53.625Z,100179.19
2023-08-05T09:15:23.270Z,100182.06
2023-08-05T09:17:51.579Z,100175.69
2023-08-05T09:20:23.395Z,100177.34
2023-08-05T09:22:56.257Z,100174.84
2023-08-05T09:25:27.257Z,100174.06
2023-08-05T09:27:57.758Z,100165.50
2023-08-05T09:30:28.953Z,100165.03
2023-08-05T09:32:59.406Z,100167.34
2023-08-05T09:35:31.814Z,100161.22
2023-08-05T09:38:01.777Z,100152.19
2023-08-05T09:40:33.956Z,100163.13
2023-08-05T09:43:04.287Z,100151.22
2023-08-05T09:45:37.100Z,100155.41
2023-08-05T09:48:11.810Z,100146.91
2023-08-05T09:50:45.120Z,100142.31
2023-08-05T09:53:23.342Z,100136.91
2023-08-05T09:55:51.754Z,100128.59
2023-08-05T09:58:19.899Z,100124.03
2023-08-05T10:00:50.889Z,100126.63
2023-08-05T10:03:19.170Z,100126.44
2023-08-05T10:05:49.130Z,100135.53
2023-08-05T10:08:22.880Z,100122.34
2023-08-05T10:10:51.612Z,100123.63
2023-08-05T10:13:23.543Z,100107.19
2023-08-05T10:15:54.473Z,100110.22
2023-08-05T10:18:27.461Z,100104.34
2023-08-05T10:21:06.746Z,100093.69
2023-08-05T10:23:36.948Z,100101.63
2023-08-05T10:26:06.146Z,100093.97
2023-08-05T10:28:41.635Z,100085.59
2023-08-05T10:31:25.292Z,100090.94
2023-08-05T10:34:19.435Z,100053.69
2023-08-05T10:36:49.801Z,100076.94
2023-08-05T10:39:45.925Z,100076.66
2023-08-05T10:42:33.961Z,100069.00
2023-08-05T10:45:02.566Z,100068.06
2023-08-05T10:47:31.968Z,100065.94
2023-08-05T10:50:03.322Z,100055.88
2023-08-05T10:52:38.469Z,100060.66
2023-08-05T10:55:13.160Z,100061.19
2023-08-05T10:57:48.440Z,100060.84
2023-08-05T11:00:21.639Z,100060.03
2023-08-05T11:03:24.332Z,100041.41
2023-08-05T11:05:58.128Z,100039.25
2023-08-05T11:08:31.728Z,100039.06
2023-08-05T11:11:02.844Z,100040.84
2023-08-05T11:13:33.954Z,100041.13
2023-08-05T11:16:07.325Z,100038.88
2023-08-05T11:18:38.401Z,100036.63
2023-08-05T11:21:38.223Z,100025.41
2023-08-05T11:24:10.033Z,100021.34
2023-08-05T11:26:38.455Z,100015.69
2023-08-05T11:29:06.691Z,100016.75
2023-08-05T11:31:34.852Z,100013.38
2023-08-05T11:36:56.656Z,100015.31
2023-08-05T11:39:26.488Z,100011.28
2023-08-05T11:41:55.047Z,100005.75
2023-08-05T11:44:23.410Z,100010.34
2023-08-05T11:46:59.511Z,100009.97
2023-08-05T11:49:30.547Z,99998.41
2023-08-05T11:51:58.777Z,99995.97
2023-08-05T11:54:31.579Z,99986.53
2023-08-05T11:57:00.718Z,99990.31
2023-08-05T11:59:41.698Z,99996.22
2023-08-05T12:02:11.256Z,99984.34
2023-08-05T12:04:46.708Z,99954.69
2023-08-05T12:07:15.644Z,99974.09
2023-08-05T12:09:45.888Z,99969.22
2023-08-05T12:12:16.175Z,99959.03
2023-08-05T12:14:44.287Z,99959.03
2023-08-05T12:17:14.612Z,99957.50
2023-08-05T12:19:43.153Z,99953.56
2023-08-05T12:22:11.255Z,99947.06
2023-08-05T12:24:39.481Z,99949.16
2023-08-05T12:27:18.889Z,99949.78
2023-08-05T12:31:18.351Z,99936.41
2023-08-05T12:33:46.921Z,99933.66
2023-08-05T12:36:15.206Z,99926.97
2023-08-05T12:38:49.394Z,99930.06
2023-08-05T12:41:17.792Z,99919.41
2023-08-05T12:43:45.938Z,99917.16
2023-08-05T12:46:14.321Z,99913.06
2023-08-05T12:48:44.944Z,99917.22
2023-08-05T12:51:13.049Z,99913.13
2023-08-05T12:53:42.729Z,99908.63
2023-08-05T12:56:11.101Z,99911.63
2023-08-05T12:58:39.277Z,99901.19
2023-08-05T13:01:10.739Z,99895.00
2023-08-05T13:03:39.313Z,99887.34
2023-08-05T13:06:14.195Z,99876.84
2023-08-05T13:08:44.293Z,99859.16
2023-08-05T13:11:12.821Z,99869.59
2023-08-05T13:13:44.197Z,99867.19
2023-08-05T13:16:12.355Z,99864.22
2023-08-05T13:18:40.806Z,99865.53
2023-08-05T13:21:10.023Z,99863.41
2023-08-05T13:23:42.707Z,99853.69
2023-08-05T13:26:11.340Z,99849.31
2023-08-05T13:28:41.833Z,99845.19
2023-08-05T13:31:10.635Z,99844.16
2023-08-05T13:33:39.092Z,99838.63
2023-08-05T13:36:07.261Z,99837.53
2023-08-05T13:38:58.046Z,99831.81
2023-08-05T13:41:26.612Z,99825.91
2023-08-05T13:43:57.357Z,99822.03
2023-08-05T13:46:25.577Z,99807.66
2023-08-05T13:48:54.178Z,99807.56
2023-08-05T13:51:22.904Z,99793.97
2023-08-05T13:53:51.953Z,99800.22
2023-08-05T13:56:23.858Z,99803.31
2023-08-05T13:58:53.836Z,99792.00
2023-08-05T14:01:22.259Z,99786.94
2023-08-05T14:03:53.916Z,99789.50
2023-08-05T14:06:22.233Z,99784.50
2023-08-05T14:08:50.894Z,99776.25
2023-08-05T14:11:21.777Z,99778.34
2023-08-05T14:13:51.240Z,99772.00
2023-08-05T14:16:22.442Z,99771.09
2023-08-05T14:18:50.579Z,99764.47
2023-08-05T14:21:19.129Z,99754.53
2023-08-05T14:23:47.624Z,99757.94
2023-08-05T14:26:15.829Z,99756.66
2023-08-05T14:28:44.678Z,99751.06
2023-08-05T14:31:14.112Z,99750.91
2023-08-05T14:33:42.244Z,99754.03
2023-08-05T14:36:13.798Z,99739.78
2023-08-05T14:38:42.714Z,99750.72
2023-08-05T14:41:16.202Z,99739.97
2023-08-05T14:43:45.937Z,99732.91
2023-08-05T14:46:17.953Z,99736.19
2023-08-05T14:48:48.508Z,99739.13
2023-08-05T14:51:20.327Z,99737.13
2023-08-05T14:53:49.003Z,99735.63
2023-08-05T14:56:19.501Z,99726.53
2023-08-05T14:58:48.352Z,99714.44
2023-08-05T15:01:18.629Z,99693.19
2023-08-05T15:03:47.907Z,99706.59
2023-08-05T15:06:16.933Z,99703.69
2023-08-05T15:08:46.771Z,99700.38
2023-08-05T15:11:18.486Z,99700.13
2023-08-05T15:13:49.274Z,99701.19
2023-08-05T15:16:21.682Z,99704.03
2023-08-05T15:18:50.043Z,99698.59
2023-08-05T15:21:18.407Z,99697.97
2023-08-05T15:23:49.978Z,99689.59
2023-08-05T15:26:20.336Z,99687.03
2023-08-05T15:28:51.821Z,99682.56
2023-08-05T15:31:21.432Z,99683.75
2023-08-05T15:33:49.599Z,99677.34
2023-08-05T15:36:19.100Z,99674.38
2023-08-05T15:38:48.179Z,99681.56
2023-08-05T15:41:17.723Z,99684.13
2023-08-05T15:43:46.003Z,99680.47
2023-08-05T15:46:18.736Z,99684.44
2023-08-05T15:48:48.386Z,99680.16
2023-08-05T15:51:16.850Z,99684.66
2023-08-05T15:53:45.448Z,99681.69
2023-08-05T15:56:13.551Z,99675.03
2023-08-05T15:58:42.475Z,99660.13
2023-08-05T16:01:10.706Z,99661.09
2023-08-05T16:03:39.254Z,99661.38
2023-08-05T16:06:30.603Z,99671.00
2023-08-05T16:08:58.863Z,99663.84
2023-08-05T16:11:32.458Z,99666.31
2023-08-05T16:14:01.128Z,99666.88
2023-08-05T16:16:29.784Z,99670.63
2023-08-05T16:18:57.881Z,99663.28
2023-08-05T16:21:26.036Z,99658.59
2023-08-05T16:23:57.950Z,99659.00
2023-08-05T16:26:28.790Z,99651.88
2023-08-05T16:28:56.929Z,99637.34
2023-08-05T16:31:25.717Z,99653.53
2023-08-05T16:33:54.254Z,99655.84
2023-08-05T16:36:23.830Z,99663.28
2023-08-05T16:38:51.998Z,99666.59
2023-08-05T16:41:22.777Z,99670.72
2023-08-05T16:43:53.309Z,99676.19
2023-08-05T16:46:26.251Z,99677.06
2023-08-05T16:48:59.687Z,99682.44
2023-08-05T16:51:28.097Z,99688.69
2023-08-05T16:53:58.910Z,99704.69
2023-08-05T16:56:28.619Z,99702.34
2023-08-05T16:58:56.819Z,99693.06
2023-08-05T17:01:25.083Z,99689.59
2023-08-05T17:03:53.328Z,99690.03
2023-08-05T17:06:24.727Z,99694.66
2023-08-05T17:08:53.050Z,99688.59
2023-08-05T17:11:21.221Z,99691.84
2023-08-05T17:13:50.728Z,99682.34
2023-08-05T17:16:20.142Z,99676.00
2023-08-05T17:18:48.440Z,99662.50
2023-08-05T17:21:16.635Z,99658.63
2023-08-05T17:23:46.384Z,99657.66
2023-08-05T17:26:17.105Z,99654.34
2023-08-05T17:32:18.609Z,99652.31
2023-08-05T17:34:47.268Z,99648.44
2023-08-05T17:37:15.479Z,99645.72
2023-08-05T17:39:43.948Z,99654.84
2023-08-05T17:42:12.163Z,99655.63
2023-08-05T17:44:40.288Z,99661.97
2023-08-05T17:47:09.004Z,99643.88
2023-08-05T17:49:38.735Z,99654.41
2023-08-05T17:52:09.830Z,99654.31
2023-08-05T17:54:40.302Z,99631.06
2023-08-05T17:57:08.749Z,99647.50
2023-08-05T17:59:36.973Z,99639.19
2023-08-05T18:02:05.393Z,99636.78
2023-08-05T18:04:36.116Z,99645.75
2023-08-05T18:07:06.169Z,99637.53
2023-08-05T18:09:34.322Z,99635.19
2023-08-05T18:12:02.529Z,99633.00
2023-08-05T18:14:30.756Z,99638.97
2023-08-05T18:16:59.150Z,99650.72
2023-08-05T18:19:29.579Z,99638.31
2023-08-05T18:21:57.747Z,99633.59
2023-08-05T18:24:27.241Z,99629.63
2023-08-05T18:26:55.978Z,99634.44
2023-08-05T18:29:26.388Z,99623.94
2023-08-05T18:31:54.866Z,99625.69
2023-08-05T18:34:23.451Z,99629.97
2023-08-05T18:36:51.630Z,99633.66
2023-08-05T18:39:19.828Z,99629.84
2023-08-05T18:41:50.120Z,99628.03
2023-08-05T18:44:18.338Z,99631.28
2023-08-05T18:46:46.507Z,99637.66
2023-08-05T18:49:14.657Z,99637.44
2023-08-05T18:51:42.949Z,99632.19
2023-08-05T18:54:11.342Z,99632.59
2023-08-05T18:56:39.473Z,99625.06
2023-08-05T18:59:10.825Z,99624.09
2023-08-05T19:01:41.650Z,99633.06
2023-08-05T19:04:12.964Z,99632.75
2023-08-05T19:06:41.317Z,99639.22
2023-08-05T19:09:09.633Z,99639.16
2023-08-05T19:11:40.357Z,99647.75
2023-08-05T19:14:09.876Z,99644.53
2023-08-05T19:16:38.064Z,99652.72
2023-08-05T19:19:06.394Z,99627.72
2023-08-05T19:21:34.506Z,99649.72
2023-08-05T19:24:03.242Z,99651.22
2023-08-05T19:26:31.369Z,99657.81
2023-08-05T19:28:59.469Z,99650.97
2023-08-05T19:31:29.214Z,99659.59
2023-08-05T19:33:57.943Z,99650.09
2023-08-05T19:36:26.022Z,99654.84
2023-08-05T19:38:54.288Z,99646.00
2023-08-05T19:41:22.651Z,99645.34
2023-08-05T19:43:50.822Z,99648.06
2023-08-05T19:46:19.286Z,99648.59
2023-08-05T20:07:08.835Z,99620.97
2023-08-05T20:09:37.745Z,99622.59
2023-08-05T20:12:07.269Z,99616.47
2023-08-05T20:14:36.955Z,99610.09
2023-08-05T20:17:05.968Z,99594.06
2023-08-05T20:19:34.456Z,99598.41
2023-08-05T20:22:03.174Z,99594.53
2023-08-05T20:24:33.255Z,99584.38
2023-08-05T20:27:01.864Z,99583.97
2023-08-05T20:31:57.328Z,99576.41
2023-08-05T20:34:29.292Z,99569.72
2023-08-05T20:36:57.927Z,99578.03
2023-08-05T20:39:26.166Z,99577.47
2023-08-05T20:41:55.792Z,99574.25
2023-08-05T20:44:24.013Z,99561.53
2023-08-05T20:46:52.273Z,99560.03
2023-08-05T20:49:20.519Z,99554.88
2023-08-05T20:51:50.294Z,99556.41
2023-08-05T20:54:18.952Z,99545.97
2023-08-05T20:56:47.052Z,99543.38
2023-08-05T20:59:16.693Z,99537.44
2023-08-05T21:01:45.052Z,99533.81
2023-08-05T21:04:13.291Z,99535.09
2023-08-05T21:06:41.727Z,99533.03
2023-08-05T21:09:12.895Z,99537.13
2023-08-05T21:11:41.416Z,99522.06
2023-08-05T21:14:09.633Z,99527.84
2023-08-05T21:16:39.536Z,99527.75
2023-08-05T21:19:07.975Z,99521.53
2023-08-05T21:21:38.570Z,99515.47
2023-08-05T21:24:06.829Z,99515.59
2023-08-05T21:26:35.101Z,99514.72
2023-08-05T21:29:07.682Z,99519.38
2023-08-05T21:31:36.125Z,99513.19
2023-08-05T21:34:08.031Z,99515.34
2023-08-05T21:36:36.525Z,99510.09
2023-08-05T21:39:06.591Z,99510.97
2023-08-05T21:41:38.138Z,99502.31
2023-08-05T21:44:07.310Z,99500.06
2023-08-05T21:46:35.571Z,99496.78
2023-08-05T21:49:05.590Z,99471.25
2023-08-05T21:51:36.161Z,99496.75
2023-08-05T21:54:05.140Z,99494.41
2023-08-05T21:56:34.853Z,99502.66
2023-08-05T21:59:03.548Z,99498.03
2023-08-05T22:01:31.750Z,99492.53
2023-08-05T22:04:00.245Z,99497.31
2023-08-05T22:06:29.832Z,99493.81
2023-08-05T22:08:59.623Z,99494.72
2023-08-05T22:11:27.853Z,99494.94
2023-08-05T22:13:58.044Z,99486.75
2023-08-05T22:16:26.619Z,99495.38
2023-08-05T22:18:55.676Z,99496.03
2023-08-05T22:21:24.023Z,99494.50
2023-08-05T22:23:54.373Z,99485.38
2023-08-05T22:26:26.313Z,99483.75
2023-08-05T22:28:54.806Z,99483.31
2023-08-05T22:33:22.045Z,99488.03
2023-08-05T22:35:50.416Z,99479.09
2023-08-05T22:38:21.187Z,99482.97
2023-08-05T22:40:49.664Z,99477.88
2023-08-05T22:43:19.044Z,99470.44
2023-08-05T22:45:47.265Z,99476.00
2023-08-05T22:48:15.780Z,99475.59
2023-08-05T22:50:45.336Z,99470.50
2023-08-05T22:53:13.477Z,99469.94
2023-08-05T22:55:42.315Z,99463.16
2023-08-05T22:58:11.900Z,99462.63
2023-08-05T23:00:42.368Z,99467.22
2023-08-05T23:03:10.715Z,99465.50
2023-08-05T23:05:39.221Z,99466.38
2023-08-05T23:08:10.919Z,99471.53
2023-08-05T23:10:41.259Z,99459.06
2023-08-05T23:13:09.361Z,99460.78
2023-08-05T23:15:42.295Z,99458.94
2023-08-05T23:18:10.617Z,99462.41
2023-08-05T23:20:38.798Z,99461.44
2023-08-05T23:23:07.058Z,99463.28
2023-08-05T23:25:39.104Z,99465.19
2023-08-05T23:28:07.332Z,99464.44
2023-08-05T23:30:35.839Z,99456.06
2023-08-05T23:33:04.139Z,99461.03
2023-08-05T23:35:34.568Z,99447.59
2023-08-05T23:38:02.876Z,99449.97
2023-08-05T23:40:31.119Z,99449.75
2023-08-05T23:43:00.790Z,99442.47
2023-08-05T23:45:29.046Z,99443.22
2023-08-05T23:47:57.197Z,99433.22
2023-08-05T23:50:25.566Z,99430.44
2023-08-05T23:52:56.020Z,99429.56
2023-08-05T23:55:24.356Z,99436.56
2023-08-05T23:57:52.702Z,99424.06
